Time;durP1;ratioP1;P1;durP2;ratioP2;P2;SDS_P1;SDS_P2;PMS_P1;PMS_P2;Temp;Humidity;BMP_temperature;BMP_pressure;BME280_temperature;BME280_humidity;BME280_pressure;Samples;Min_cycle;Max_cycle;Signal;HPM_P1;HPM_P2
2021/08/03 00:00:36;;;;;;;;;;;21.20;60.40;;;;;;5047741;28;1170;-70
2021/08/03 00:03:06;;;;;;;;;;;21.20;60.40;;;;;;5030533;28;1287;-70
2021/08/03 00:05:33;;;;;;;;;;;21.20;60.30;;;;;;5046954;28;1123;-70
2021/08/03 00:08:21;;;;;;;;;;;21.20;60.40;;;;;;5030955;28;1080;-70
2021/08/03 00:10:47;;;;;;;;;;;21.20;60.10;;;;;;5032207;28;1044;-70
2021/08/03 00:13:12;;;;;;;;;;;21.10;60.20;;;;;;5030775;28;1259;-70
2021/08/03 00:15:39;;;;;;;;;;;21.20;60.10;;;;;;5031673;28;1975;-70
2021/08/03 00:18:04;;;;;;;;;;;21.20;60.00;;;;;;5047440;28;1069;-70
2021/08/03 00:20:29;;;;;;;;;;;21.20;59.90;;;;;;5047103;28;1216;-70
2021/08/03 00:22:58;;;;;;;;;;;21.20;59.90;;;;;;5048163;28;1403;-70
2021/08/03 00:25:23;;;;;;;;;;;21.20;59.90;;;;;;5050527;28;1052;-70
2021/08/03 00:27:49;;;;;;;;;;;21.20;59.80;;;;;;5035892;28;1275;-70
2021/08/03 00:30:14;;;;;;;;;;;21.20;60.60;;;;;;5035851;28;1060;-70
2021/08/03 00:32:40;;;;;;;;;;;21.20;59.80;;;;;;5034529;28;1291;-70
2021/08/03 00:35:05;;;;;;;;;;;21.10;59.80;;;;;;5050655;28;1894;-70
2021/08/03 00:37:31;;;;;;;;;;;21.10;59.90;;;;;;5035887;28;1178;-70
2021/08/03 00:39:56;;;;;;;;;;;21.10;59.70;;;;;;5035644;28;1056;-70
2021/08/03 00:42:21;;;;;;;;;;;21.10;59.60;;;;;;5050586;28;1147;-70
2021/08/03 00:44:49;;;;;;;;;;;21.10;59.70;;;;;;5035188;28;1299;-70
2021/08/03 00:47:14;;;;;;;;;;;21.10;59.70;;;;;;5034479;28;1080;-71
2021/08/03 00:49:40;;;;;;;;;;;21.10;59.60;;;;;;5035191;28;1071;-70
2021/08/03 00:52:06;;;;;;;;;;;21.10;59.60;;;;;;5050515;28;1431;-70
2021/08/03 00:54:31;;;;;;;;;;;21.10;59.70;;;;;;5050250;28;1953;-70
2021/08/03 00:56:57;;;;;;;;;;;21.10;59.70;;;;;;5050828;28;1071;-70
2021/08/03 00:59:23;;;;;;;;;;;21.10;59.60;;;;;;5050941;28;1138;-70
2021/08/03 01:01:48;;;;;;;;;;;21.10;59.50;;;;;;5034155;28;1226;-70
2021/08/03 01:04:15;;;;;;;;;;;21.10;59.50;;;;;;5034514;28;1221;-69
2021/08/03 01:06:43;;;;;;;;;;;21.10;59.40;;;;;;5050170;28;1107;-70
2021/08/03 01:09:15;;;;;;;;;;;21.10;59.30;;;;;;5051046;28;1052;-70
2021/08/03 01:11:42;;;;;;;;;;;21.10;59.40;;;;;;5035278;28;1151;-70
2021/08/03 01:14:11;;;;;;;;;;;21.00;59.40;;;;;;5034172;28;1965;-70
2021/08/03 01:16:39;;;;;;;;;;;21.10;59.30;;;;;;5050471;28;1095;-70
2021/08/03 01:19:17;;;;;;;;;;;21.10;59.30;;;;;;5028616;28;1553;-70
2021/08/03 01:21:49;;;;;;;;;;;21.10;59.30;;;;;;5035094;28;1175;-70
2021/08/03 01:24:25;;;;;;;;;;;21.10;59.20;;;;;;5032831;28;1174;-70
2021/08/03 01:26:59;;;;;;;;;;;21.00;59.10;;;;;;5033024;28;958;-70
2021/08/03 01:29:25;;;;;;;;;;;21.00;59.10;;;;;;5053126;28;1387;-70
2021/08/03 01:31:52;;;;;;;;;;;21.00;59.00;;;;;;5053749;28;1189;-70
2021/08/03 01:34:19;;;;;;;;;;;21.00;59.10;;;;;;5051868;28;1870;-70
2021/08/03 01:36:48;;;;;;;;;;;21.00;59.10;;;;;;5053153;28;1083;-69
2021/08/03 01:39:15;;;;;;;;;;;21.00;59.10;;;;;;5053274;28;1104;-70
2021/08/03 01:41:40;;;;;;;;;;;21.00;59.10;;;;;;5054553;28;1142;-69
2021/08/03 01:44:06;;;;;;;;;;;21.00;59.20;;;;;;5049529;28;1370;-70
2021/08/03 01:46:32;;;;;;;;;;;21.00;59.20;;;;;;5033385;28;1116;-69
2021/08/03 01:48:58;;;;;;;;;;;21.00;59.20;;;;;;5049389;28;1189;-69
2021/08/03 01:51:23;;;;;;;;;;;21.00;59.20;;;;;;5049646;28;1121;-69
2021/08/03 01:53:48;;;;;;;;;;;21.00;59.10;;;;;;5049623;28;1902;-70
2021/08/03 01:56:14;;;;;;;;;;;21.00;59.00;;;;;;5033856;28;1072;-69
2021/08/03 01:58:41;;;;;;;;;;;21.00;59.00;;;;;;5032692;28;1275;-70
2021/08/03 02:01:06;;;;;;;;;;;21.00;59.00;;;;;;5049665;28;1122;-69
2021/08/03 02:03:32;;;;;;;;;;;21.00;58.90;;;;;;5049618;28;1229;-69
2021/08/03 02:05:57;;;;;;;;;;;21.00;58.90;;;;;;5032169;28;1108;-69
2021/08/03 02:08:23;;;;;;;;;;;21.00;58.80;;;;;;5032946;28;1025;-69
2021/08/03 02:10:48;;;;;;;;;;;21.00;58.80;;;;;;5048950;28;1091;-69
2021/08/03 02:13:14;;;;;;;;;;;21.00;58.80;;;;;;5049220;28;1282;-70
2021/08/03 02:15:39;;;;;;;;;;;20.90;58.70;;;;;;5048651;28;1965;-69
2021/08/03 02:18:05;;;;;;;;;;;20.90;58.70;;;;;;5034123;28;1108;-69
2021/08/03 02:20:30;;;;;;;;;;;20.90;58.60;;;;;;5048917;28;1091;-70
2021/08/03 02:22:56;;;;;;;;;;;20.90;58.50;;;;;;5048488;28;1366;-70
2021/08/03 02:25:21;;;;;;;;;;;20.90;58.50;;;;;;5049087;28;1119;-69
2021/08/03 02:27:47;;;;;;;;;;;20.90;58.40;;;;;;5049320;28;1087;-69
2021/08/03 02:30:12;;;;;;;;;;;20.90;58.40;;;;;;5033807;28;1036;-69
2021/08/03 02:32:50;;;;;;;;;;;20.90;58.40;;;;;;5033358;28;1271;-70
2021/08/03 02:35:16;;;;;;;;;;;20.90;58.30;;;;;;5047955;28;1894;-69
2021/08/03 02:37:44;;;;;;;;;;;20.90;58.30;;;;;;5049154;28;1119;-70
2021/08/03 02:40:10;;;;;;;;;;;20.90;58.30;;;;;;5048841;28;1158;-69
2021/08/03 02:42:36;;;;;;;;;;;20.90;58.30;;;;;;5048623;28;1402;-70
2021/08/03 02:45:02;;;;;;;;;;;20.90;58.20;;;;;;5048126;28;1060;-70
2021/08/03 02:47:30;;;;;;;;;;;20.90;58.20;;;;;;5032192;28;1131;-69
2021/08/03 02:50:05;;;;;;;;;;;20.90;58.20;;;;;;5048370;28;1096;-69
2021/08/03 02:52:31;;;;;;;;;;;20.90;58.20;;;;;;5046960;28;1115;-70
2021/08/03 02:55:26;;;;;;;;;;;20.90;58.20;;;;;;5031636;28;1902;-69
2021/08/03 02:58:00;;;;;;;;;;;20.90;58.30;;;;;;5037182;28;1238;-69
2021/08/03 03:00:26;;;;;;;;;;;20.90;58.30;;;;;;5048472;28;1083;-69
2021/08/03 03:02:52;;;;;;;;;;;20.90;58.30;;;;;;5048034;28;1356;-69
2021/08/03 03:05:27;;;;;;;;;;;20.80;58.10;;;;;;5047883;28;1166;-69
2021/08/03 03:07:53;;;;;;;;;;;20.80;58.10;;;;;;5031809;28;1135;-70
2021/08/03 03:10:22;;;;;;;;;;;20.80;58.20;;;;;;5048553;28;1187;-70
2021/08/03 03:12:50;;;;;;;;;;;20.80;58.20;;;;;;5048378;28;1267;-69
2021/08/03 03:15:15;;;;;;;;;;;20.80;58.20;;;;;;5047279;28;1902;-69
2021/08/03 03:17:40;;;;;;;;;;;20.80;58.30;;;;;;5032725;28;1088;-69
2021/08/03 03:20:06;;;;;;;;;;;20.80;58.40;;;;;;5048238;28;1067;-69
2021/08/03 03:22:32;;;;;;;;;;;20.80;58.40;;;;;;5047906;28;1212;-69
2021/08/03 03:24:58;;;;;;;;;;;20.80;58.50;;;;;;5030513;28;1124;-69
2021/08/03 03:27:23;;;;;;;;;;;20.80;58.50;;;;;;5048360;28;1068;-69
2021/08/03 03:29:49;;;;;;;;;;;20.80;58.50;;;;;;5047971;28;1202;-69
2021/08/03 03:32:14;;;;;;;;;;;20.80;58.60;;;;;;5047920;28;1095;-69
2021/08/03 03:34:39;;;;;;;;;;;20.80;58.50;;;;;;5032009;28;1898;-69
2021/08/03 03:37:05;;;;;;;;;;;20.80;58.50;;;;;;5047734;28;1057;-69
2021/08/03 03:39:31;;;;;;;;;;;20.80;58.60;;;;;;5032429;28;1352;-69
2021/08/03 03:41:57;;;;;;;;;;;20.80;58.60;;;;;;5047773;28;1476;-69
2021/08/03 03:44:22;;;;;;;;;;;20.80;58.60;;;;;;5047048;28;1314;-69
2021/08/03 03:46:54;;;;;;;;;;;20.80;58.70;;;;;;5031418;28;1167;-69
2021/08/03 03:49:22;;;;;;;;;;;20.80;58.70;;;;;;5047558;28;1175;-69
2021/08/03 03:51:47;;;;;;;;;;;20.80;58.80;;;;;;5047662;28;1093;-69
2021/08/03 03:54:13;;;;;;;;;;;20.80;58.80;;;;;;5031549;28;1971;-70
2021/08/03 03:56:40;;;;;;;;;;;20.80;58.80;;;;;;5048143;28;1138;-70
2021/08/03 03:59:06;;;;;;;;;;;20.80;58.60;;;;;;5052120;28;1150;-69
2021/08/03 04:01:31;;;;;;;;;;;20.80;58.60;;;;;;5039359;28;1139;-69
2021/08/03 04:04:00;;;;;;;;;;;20.80;58.70;;;;;;5037785;28;1357;-69
2021/08/03 04:06:25;;;;;;;;;;;20.80;58.70;;;;;;5053658;28;1115;-69
2021/08/03 04:08:51;;;;;;;;;;;20.80;58.70;;;;;;5037477;28;1155;-69
2021/08/03 04:11:16;;;;;;;;;;;20.80;58.60;;;;;;5054500;28;1087;-69
2021/08/03 04:13:45;;;;;;;;;;;20.80;58.50;;;;;;5037965;28;1963;-69
2021/08/03 04:16:10;;;;;;;;;;;20.80;58.50;;;;;;5037129;28;1181;-69
2021/08/03 04:18:35;;;;;;;;;;;20.80;58.70;;;;;;5054034;28;1134;-69
2021/08/03 04:21:01;;;;;;;;;;;20.80;58.70;;;;;;5037258;28;1288;-69
2021/08/03 04:23:26;;;;;;;;;;;20.80;58.80;;;;;;5025345;28;1225;-69
2021/08/03 04:25:52;;;;;;;;;;;20.80;58.80;;;;;;5038368;28;1080;-69
2021/08/03 04:28:17;;;;;;;;;;;20.80;58.90;;;;;;5037044;28;1056;-69
2021/08/03 04:30:43;;;;;;;;;;;20.80;58.90;;;;;;5038620;28;1052;-70
2021/08/03 04:33:08;;;;;;;;;;;20.80;58.90;;;;;;5054360;28;1331;-69
2021/08/03 04:35:34;;;;;;;;;;;20.80;59.10;;;;;;5038476;28;1898;-69
2021/08/03 04:37:59;;;;;;;;;;;20.80;59.00;;;;;;5038688;28;1136;-69
2021/08/03 04:40:26;;;;;;;;;;;20.80;59.20;;;;;;5038580;28;1065;-69
2021/08/03 04:42:51;;;;;;;;;;;20.80;59.20;;;;;;5038108;28;1267;-69
2021/08/03 04:45:17;;;;;;;;;;;20.80;59.30;;;;;;5036503;28;1312;-69
2021/08/03 04:47:43;;;;;;;;;;;20.80;59.30;;;;;;5038639;28;1203;-69
2021/08/03 04:50:09;;;;;;;;;;;20.80;59.40;;;;;;5038186;28;1097;-69
2021/08/03 04:52:34;;;;;;;;;;;20.80;59.20;;;;;;5053466;28;1280;-69
2021/08/03 04:55:00;;;;;;;;;;;20.80;59.30;;;;;;5037672;28;1910;-69
2021/08/03 04:57:25;;;;;;;;;;;20.80;59.30;;;;;;5053406;28;1146;-69
2021/08/03 04:59:51;;;;;;;;;;;20.80;59.50;;;;;;5038237;28;1079;-69
2021/08/03 05:02:16;;;;;;;;;;;20.80;60.70;;;;;;5038246;28;1158;-70
2021/08/03 05:04:42;;;;;;;;;;;20.80;67.60;;;;;;5038245;28;1217;-69
2021/08/03 05:07:07;;;;;;;;;;;20.80;68.80;;;;;;5038000;28;1147;-69
2021/08/03 05:09:32;;;;;;;;;;;20.90;70.10;;;;;;5051709;28;1071;-70
2021/08/03 05:11:58;;;;;;;;;;;20.90;70.50;;;;;;5035285;28;1147;-71
2021/08/03 05:14:23;;;;;;;;;;;21.00;71.50;;;;;;5076987;22;2138;-68
2021/08/03 05:16:49;;;;;;;;;;;21.00;71.80;;;;;;5068624;28;972;-67
2021/08/03 05:19:15;;;;;;;;;;;21.00;71.90;;;;;;5074153;28;1083;-68
2021/08/03 05:21:40;;;;;;;;;;;21.00;71.90;;;;;;5075368;28;1127;-68
2021/08/03 05:24:06;;;;;;;;;;;21.00;71.80;;;;;;5067139;28;1353;-67
2021/08/03 05:26:31;;;;;;;;;;;21.10;71.90;;;;;;5055204;28;1075;-67
2021/08/03 05:28:56;;;;;;;;;;;21.10;71.90;;;;;;5055165;28;1119;-68
2021/08/03 05:31:22;;;;;;;;;;;21.10;71.80;;;;;;5055468;28;1166;-68
2021/08/03 05:33:47;;;;;;;;;;;21.10;71.80;;;;;;5054959;28;1898;-67
2021/08/03 05:36:13;;;;;;;;;;;21.10;71.80;;;;;;5054795;28;1166;-67
2021/08/03 05:38:38;;;;;;;;;;;21.10;71.70;;;;;;5055151;28;1286;-68
2021/08/03 05:41:04;;;;;;;;;;;21.10;71.70;;;;;;5054933;28;1138;-67
2021/08/03 05:43:29;;;;;;;;;;;21.10;71.60;;;;;;5054864;28;1157;-67
2021/08/03 05:45:55;;;;;;;;;;;21.20;71.60;;;;;;5054591;28;1205;-68
2021/08/03 05:48:20;;;;;;;;;;;21.20;71.40;;;;;;5053771;28;1068;-68
2021/08/03 05:50:46;;;;;;;;;;;21.10;71.40;;;;;;5053632;28;1087;-67
2021/08/03 05:53:11;;;;;;;;;;;21.20;71.50;;;;;;5054757;28;1226;-68
2021/08/03 05:55:36;;;;;;;;;;;21.10;71.40;;;;;;5054261;28;1905;-67
2021/08/03 05:58:02;;;;;;;;;;;21.10;71.00;;;;;;5054705;28;1063;-67
2021/08/03 06:00:27;;;;;;;;;;;21.20;71.50;;;;;;5054915;28;1120;-67
2021/08/03 06:02:53;;;;;;;;;;;21.20;71.30;;;;;;5054731;28;1075;-68
2021/08/03 06:05:18;;;;;;;;;;;21.20;71.20;;;;;;5049487;28;1190;-68
2021/08/03 06:07:44;;;;;;;;;;;21.20;71.20;;;;;;5054597;28;1158;-68
2021/08/03 06:10:16;;;;;;;;;;;21.20;71.20;;;;;;5053240;28;1087;-67
2021/08/03 06:12:45;;;;;;;;;;;21.20;71.30;;;;;;5054736;28;1126;-67
2021/08/03 06:15:11;;;;;;;;;;;21.20;71.30;;;;;;5052625;28;1987;-67
2021/08/03 06:17:37;;;;;;;;;;;21.20;71.80;;;;;;5053305;28;1127;-67
2021/08/03 06:20:03;;;;;;;;;;;21.20;71.90;;;;;;5053093;28;1131;-67
2021/08/03 06:22:29;;;;;;;;;;;21.20;71.90;;;;;;5053018;28;1165;-68
2021/08/03 06:24:54;;;;;;;;;;;21.20;71.90;;;;;;5052347;28;1270;-67
2021/08/03 06:27:20;;;;;;;;;;;21.20;71.80;;;;;;5053261;28;1095;-67
2021/08/03 06:29:45;;;;;;;;;;;21.20;71.80;;;;;;5054125;28;1120;-69
2021/08/03 06:32:11;;;;;;;;;;;21.20;72.00;;;;;;5054131;28;1340;-69
2021/08/03 06:34:37;;;;;;;;;;;21.20;72.00;;;;;;5053558;28;1905;-69
2021/08/03 06:37:02;;;;;;;;;;;21.20;72.00;;;;;;5054391;28;1130;-67
2021/08/03 06:39:28;;;;;;;;;;;21.20;72.00;;;;;;5052568;28;1087;-67
2021/08/03 06:41:56;;;;;;;;;;;21.20;72.00;;;;;;5053922;28;1063;-67
2021/08/03 06:44:22;;;;;;;;;;;21.20;72.00;;;;;;5053465;28;1367;-67
2021/08/03 06:46:50;;;;;;;;;;;21.20;72.00;;;;;;5052677;28;1115;-67
2021/08/03 06:49:15;;;;;;;;;;;21.20;72.00;;;;;;5052420;28;1264;-67
2021/08/03 06:51:41;;;;;;;;;;;21.20;71.90;;;;;;5052509;28;1064;-67
2021/08/03 06:54:07;;;;;;;;;;;21.20;71.90;;;;;;5052905;28;1914;-67
2021/08/03 06:56:33;;;;;;;;;;;21.20;72.70;;;;;;5052458;28;1146;-67
2021/08/03 06:59:04;;;;;;;;;;;21.20;72.00;;;;;;5053559;28;1048;-67
2021/08/03 07:01:36;;;;;;;;;;;21.20;71.80;;;;;;5052430;28;1663;-67
2021/08/03 07:04:02;;;;;;;;;;;21.20;72.10;;;;;;5053062;28;1686;-67
2021/08/03 07:06:28;;;;;;;;;;;21.20;72.10;;;;;;5044973;28;1495;-67
2021/08/03 07:08:53;;;;;;;;;;;21.20;72.10;;;;;;5043627;28;1279;-67
2021/08/03 07:11:19;;;;;;;;;;;21.20;71.70;;;;;;5043252;28;1240;-67
2021/08/03 07:13:44;;;;;;;;;;;21.30;72.10;;;;;;5044358;28;2129;-67
2021/08/03 07:16:10;;;;;;;;;;;21.20;71.80;;;;;;5043054;28;1180;-67
2021/08/03 07:18:35;;;;;;;;;;;21.30;71.90;;;;;;5045066;28;1286;-67
2021/08/03 07:21:00;;;;;;;;;;;21.30;71.90;;;;;;5043938;28;1259;-67
2021/08/03 07:23:26;;;;;;;;;;;21.30;71.70;;;;;;5044738;28;1354;-67
2021/08/03 07:25:51;;;;;;;;;;;21.30;71.80;;;;;;5051712;28;1593;-67
2021/08/03 07:28:17;;;;;;;;;;;21.30;71.80;;;;;;5052583;28;1788;-67
2021/08/03 07:30:43;;;;;;;;;;;21.30;71.90;;;;;;5051079;28;1362;-67
2021/08/03 07:33:12;;;;;;;;;;;21.40;72.00;;;;;;5053067;28;1724;-67
2021/08/03 07:35:38;;;;;;;;;;;21.30;71.50;;;;;;5050464;28;1902;-67
2021/08/03 07:38:04;;;;;;;;;;;21.30;71.40;;;;;;5052145;28;1119;-67
2021/08/03 07:40:30;;;;;;;;;;;21.30;71.40;;;;;;5052544;28;1177;-67
2021/08/03 07:42:55;;;;;;;;;;;21.30;71.40;;;;;;5052918;28;1175;-67
2021/08/03 07:45:20;;;;;;;;;;;21.30;71.50;;;;;;5052334;28;1296;-67
2021/08/03 07:47:46;;;;;;;;;;;21.40;71.60;;;;;;5052734;28;1325;-67
2021/08/03 07:50:13;;;;;;;;;;;21.30;71.50;;;;;;5052809;28;1095;-67
2021/08/03 07:52:38;;;;;;;;;;;21.40;71.90;;;;;;5052414;28;1134;-67
2021/08/03 07:55:04;;;;;;;;;;;21.40;71.90;;;;;;5052380;28;1902;-67
2021/08/03 07:57:29;;;;;;;;;;;21.30;72.30;;;;;;5052940;28;1131;-67
2021/08/03 07:59:54;;;;;;;;;;;21.30;72.30;;;;;;5052729;28;1060;-67
2021/08/03 08:02:21;;;;;;;;;;;21.30;72.40;;;;;;5052686;28;1112;-67
2021/08/03 08:04:47;;;;;;;;;;;21.40;72.50;;;;;;5048082;28;1272;-67
2021/08/03 08:07:12;;;;;;;;;;;21.40;72.80;;;;;;5051647;28;1119;-67
2021/08/03 08:09:37;;;;;;;;;;;21.40;72.80;;;;;;5052569;28;1064;-67
2021/08/03 08:12:03;;;;;;;;;;;21.40;72.70;;;;;;5052569;28;1128;-67
2021/08/03 08:14:30;;;;;;;;;;;21.40;73.00;;;;;;5052052;28;1906;-67
2021/08/03 08:16:55;;;;;;;;;;;21.40;73.10;;;;;;5047621;28;2348;-67
2021/08/03 08:19:21;;;;;;;;;;;21.40;73.10;;;;;;5048547;28;1941;-67
2021/08/03 08:21:46;;;;;;;;;;;21.40;73.30;;;;;;5046550;28;2224;-67
2021/08/03 08:24:12;;;;;;;;;;;21.40;73.20;;;;;;5044061;28;1524;-67
2021/08/03 08:26:37;;;;;;;;;;;21.40;73.10;;;;;;5043884;28;1559;-67
2021/08/03 08:29:02;;;;;;;;;;;21.40;73.20;;;;;;5042142;28;1426;-67
2021/08/03 08:31:28;;;;;;;;;;;21.40;73.10;;;;;;5042584;28;1518;-67
2021/08/03 08:33:53;;;;;;;;;;;21.40;72.90;;;;;;5045003;28;2147;-67
2021/08/03 08:36:19;;;;;;;;;;;21.40;73.10;;;;;;5041721;28;1497;-67
2021/08/03 08:38:44;;;;;;;;;;;21.40;73.10;;;;;;5042580;28;1444;-67
2021/08/03 08:41:10;;;;;;;;;;;21.40;73.10;;;;;;5043587;28;1455;-67
2021/08/03 08:43:35;;;;;;;;;;;21.50;73.30;;;;;;5042699;28;1448;-68
2021/08/03 08:46:01;;;;;;;;;;;21.40;73.00;;;;;;5044356;28;1847;-67
2021/08/03 08:48:26;;;;;;;;;;;21.40;73.20;;;;;;5047462;28;1988;-67
2021/08/03 08:50:53;;;;;;;;;;;21.50;73.50;;;;;;5053214;28;1669;-67
2021/08/03 08:53:18;;;;;;;;;;;21.40;73.00;;;;;;5043166;28;1781;-67
2021/08/03 08:55:43;;;;;;;;;;;21.50;73.20;;;;;;5052143;28;1902;-67
2021/08/03 08:58:09;;;;;;;;;;;21.50;73.20;;;;;;5056253;28;1203;-67
2021/08/03 09:00:34;;;;;;;;;;;21.40;73.20;;;;;;5054840;28;1441;-67
2021/08/03 09:03:00;;;;;;;;;;;21.50;73.20;;;;;;5056063;28;1595;-67
2021/08/03 09:05:26;;;;;;;;;;;21.50;73.20;;;;;;5051199;28;1625;-67
2021/08/03 09:07:52;;;;;;;;;;;21.50;73.10;;;;;;5056028;28;1692;-67
2021/08/03 09:10:34;;;;;;;;;;;21.50;73.20;;;;;;5054583;28;1444;-67
2021/08/03 09:13:04;;;;;;;;;;;21.50;73.20;;;;;;5054531;28;1611;-67
2021/08/03 09:15:29;;;;;;;;;;;21.50;73.30;;;;;;5055154;28;1905;-67
2021/08/03 09:18:12;;;;;;;;;;;21.50;73.50;;;;;;5055555;28;1669;-67
2021/08/03 09:20:37;;;;;;;;;;;21.40;73.20;;;;;;5054557;28;1655;-67
2021/08/03 09:23:03;;;;;;;;;;;21.50;73.20;;;;;;5054432;28;1758;-67
2021/08/03 09:25:28;;;;;;;;;;;21.50;73.30;;;;;;5054249;28;1611;-67
2021/08/03 09:27:53;;;;;;;;;;;21.50;73.60;;;;;;5055575;28;1662;-67
2021/08/03 09:30:19;;;;;;;;;;;21.50;73.60;;;;;;5054123;28;1606;-67
2021/08/03 09:32:47;;;;;;;;;;;21.50;73.60;;;;;;5055579;28;1698;-67
2021/08/03 09:35:13;;;;;;;;;;;21.50;73.70;;;;;;5054866;28;1973;-68
2021/08/03 09:37:39;;;;;;;;;;;21.50;73.50;;;;;;5055363;28;1470;-69
2021/08/03 09:40:20;;;;;;;;;;;21.50;73.80;;;;;;5054058;28;1286;-69
2021/08/03 09:42:56;;;;;;;;;;;21.50;73.60;;;;;;5055210;28;1463;-70
2021/08/03 09:45:22;;;;;;;;;;;21.50;73.50;;;;;;5053651;28;1523;-68
2021/08/03 09:47:47;;;;;;;;;;;21.50;73.50;;;;;;5055048;28;1512;-67
2021/08/03 09:50:12;;;;;;;;;;;21.50;73.60;;;;;;5055027;28;1637;-67
2021/08/03 09:52:41;;;;;;;;;;;21.50;74.00;;;;;;5054393;28;1414;-68
2021/08/03 09:55:09;;;;;;;;;;;21.50;74.20;;;;;;5054582;28;1977;-67
2021/08/03 09:57:35;;;;;;;;;;;21.50;74.20;;;;;;5054459;28;1503;-67
2021/08/03 10:00:00;;;;;;;;;;;21.50;74.20;;;;;;5054876;28;1682;-67
2021/08/03 10:02:26;;;;;;;;;;;21.50;74.30;;;;;;5054945;28;1335;-67
2021/08/03 10:04:52;;;;;;;;;;;21.50;74.40;;;;;;5049709;28;1705;-67
2021/08/03 10:07:18;;;;;;;;;;;21.50;74.30;;;;;;5053249;28;1437;-67
2021/08/03 10:09:43;;;;;;;;;;;21.50;74.40;;;;;;5053495;28;1356;-67
2021/08/03 10:12:09;;;;;;;;;;;21.50;74.30;;;;;;5054604;28;1580;-68
2021/08/03 10:14:35;;;;;;;;;;;21.50;74.40;;;;;;5054161;28;1906;-68
2021/08/03 10:17:00;;;;;;;;;;;21.50;74.50;;;;;;5054431;28;1454;-67
2021/08/03 10:19:26;;;;;;;;;;;21.50;74.40;;;;;;5053206;28;1717;-67
2021/08/03 10:22:11;;;;;;;;;;;21.50;74.10;;;;;;5053359;28;1667;-68
2021/08/03 10:24:36;;;;;;;;;;;21.50;74.20;;;;;;5053863;28;1489;-68
2021/08/03 10:27:03;;;;;;;;;;;21.50;74.10;;;;;;5053171;28;988;-68
2021/08/03 10:29:29;;;;;;;;;;;21.50;74.10;;;;;;5054288;28;1734;-68
2021/08/03 10:31:55;;;;;;;;;;;21.50;74.20;;;;;;5053139;28;1678;-68
2021/08/03 10:34:38;;;;;;;;;;;21.50;74.30;;;;;;5053826;28;1909;-67
2021/08/03 10:37:04;;;;;;;;;;;21.50;74.20;;;;;;5054153;28;1582;-68
2021/08/03 10:39:29;;;;;;;;;;;21.50;74.20;;;;;;5054083;28;1431;-68
2021/08/03 10:41:55;;;;;;;;;;;21.50;74.20;;;;;;5052799;28;1584;-68
2021/08/03 10:44:39;;;;;;;;;;;21.50;74.30;;;;;;5053706;28;1651;-68
2021/08/03 10:47:04;;;;;;;;;;;21.50;74.20;;;;;;5054137;28;1579;-68
2021/08/03 10:49:48;;;;;;;;;;;21.50;74.30;;;;;;5053869;28;1375;-68
2021/08/03 10:52:34;;;;;;;;;;;21.50;74.40;;;;;;5053325;28;1343;-68
2021/08/03 10:54:59;;;;;;;;;;;21.50;74.40;;;;;;5053454;28;1965;-68
2021/08/03 10:57:25;;;;;;;;;;;21.50;74.60;;;;;;5053829;28;1623;-68
2021/08/03 11:00:02;;;;;;;;;;;21.60;74.90;;;;;;5053292;28;1667;-68
2021/08/03 11:02:34;;;;;;;;;;;21.50;74.80;;;;;;5052632;28;1588;-68
2021/08/03 11:04:59;;;;;;;;;;;21.60;75.10;;;;;;5048585;28;1636;-68
2021/08/03 11:07:24;;;;;;;;;;;21.60;75.30;;;;;;5052963;28;1357;-68
2021/08/03 11:09:53;;;;;;;;;;;21.50;75.60;;;;;;5053337;28;1634;-68
2021/08/03 11:12:36;;;;;;;;;;;21.60;76.00;;;;;;5053490;28;1369;-68
2021/08/03 11:15:24;;;;;;;;;;;21.60;76.20;;;;;;5064428;22;3748;-68
2021/08/03 11:17:53;;;;;;;;;;;21.60;76.20;;;;;;5051819;28;1232;-68
2021/08/03 11:20:33;;;;;;;;;;;21.60;76.30;;;;;;5051466;28;1385;-69
2021/08/03 11:22:59;;;;;;;;;;;21.60;76.10;;;;;;5052656;28;1374;-69
2021/08/03 11:25:24;;;;;;;;;;;21.60;76.60;;;;;;5050833;28;2283;-69
2021/08/03 11:27:49;;;;;;;;;;;21.60;76.80;;;;;;5051449;28;1454;-69
2021/08/03 11:30:15;;;;;;;;;;;21.60;76.50;;;;;;5051511;28;1652;-69
2021/08/03 11:32:41;;;;;;;;;;;21.60;76.70;;;;;;5053065;28;1638;-69
2021/08/03 11:35:06;;;;;;;;;;;21.60;77.00;;;;;;5051897;28;1980;-68
2021/08/03 11:37:38;;;;;;;;;;;21.60;76.70;;;;;;5050565;28;1713;-69
2021/08/03 11:40:04;;;;;;;;;;;21.60;76.50;;;;;;5054440;28;1401;-68
2021/08/03 11:42:41;;;;;;;;;;;21.60;76.70;;;;;;5044544;28;1500;-69
2021/08/03 11:45:08;;;;;;;;;;;21.60;76.80;;;;;;5050802;28;1886;-69
2021/08/03 11:47:57;;;;;;;;;;;21.60;76.70;;;;;;5033201;28;1379;-68
2021/08/03 11:50:29;;;;;;;;;;;21.60;76.60;;;;;;5024068;28;1402;-68
2021/08/03 11:53:15;;;;;;;;;;;21.60;76.70;;;;;;5030976;28;1433;-70
2021/08/03 11:55:42;;;;;;;;;;;21.60;76.50;;;;;;5031360;28;1894;-68
2021/08/03 11:58:10;;;;;;;;;;;21.60;76.60;;;;;;5031518;28;1382;-68
2021/08/03 12:00:35;;;;;;;;;;;21.60;76.60;;;;;;5030856;28;1471;-69
2021/08/03 12:03:01;;;;;;;;;;;21.60;76.50;;;;;;5032234;28;1653;-69
2021/08/03 12:05:26;;;;;;;;;;;21.60;76.30;;;;;;5034540;28;1295;-70
2021/08/03 12:08:12;;;;;;;;;;;21.60;76.70;;;;;;5032641;28;1235;-70
2021/08/03 12:10:41;;;;;;;;;;;21.60;75.00;;;;;;5040349;28;1153;-67
2021/08/03 12:13:07;;;;;;;;;;;21.60;73.40;;;;;;5036417;28;1463;-70
2021/08/03 12:15:45;;;;;;;;;;;21.60;73.60;;;;;;5030954;28;1961;-71
2021/08/03 12:18:11;;;;;;;;;;;21.60;73.60;;;;;;5031621;28;1111;-68
2021/08/03 12:20:48;;;;;;;;;;;21.60;73.40;;;;;;5035725;28;1182;-68
2021/08/03 12:23:18;;;;;;;;;;;21.60;73.20;;;;;;5040160;28;1896;-69
2021/08/03 12:25:47;;;;;;;;;;;21.60;73.10;;;;;;5050424;28;1279;-69
2021/08/03 12:28:33;;;;;;;;;;;21.60;72.60;;;;;;5035182;28;1144;-68
2021/08/03 12:31:13;;;;;;;;;;;21.50;72.70;;;;;;5035412;28;1150;-69
2021/08/03 12:33:38;;;;;;;;;;;21.60;73.20;;;;;;5034013;28;1139;-71
2021/08/03 12:36:04;;;;;;;;;;;21.50;72.10;;;;;;5033696;28;1906;-67
2021/08/03 12:38:30;;;;;;;;;;;21.50;71.80;;;;;;5039130;28;920;-69
2021/08/03 12:40:56;;;;;;;;;;;21.50;71.40;;;;;;5052636;28;1190;-70
2021/08/03 12:43:38;;;;;;;;;;;21.50;70.90;;;;;;5054139;28;1056;-67
2021/08/03 12:46:03;;;;;;;;;;;21.50;71.20;;;;;;5054791;28;1296;-68
2021/08/03 12:48:31;;;;;;;;;;;21.50;70.40;;;;;;5055371;28;1134;-69
2021/08/03 12:51:00;;;;;;;;;;;21.50;70.40;;;;;;5055340;28;1166;-71
2021/08/03 12:53:26;;;;;;;;;;;21.50;70.50;;;;;;5054368;28;1056;-69
2021/08/03 12:58:36;;;;;;;;;;;21.50;69.90;;;;;;5040835;28;1225;-67
2021/08/03 13:01:11;;;;;;;;;;;21.50;69.40;;;;;;5044025;28;1059;-71
2021/08/03 13:03:37;;;;;;;;;;;21.50;70.40;;;;;;5054998;28;1114;-66
2021/08/03 13:06:02;;;;;;;;;;;21.50;71.10;;;;;;5043319;28;1223;-66
2021/08/03 13:08:28;;;;;;;;;;;21.50;71.00;;;;;;5034804;28;1196;-69
2021/08/03 13:10:53;;;;;;;;;;;21.50;71.80;;;;;;5033743;28;1136;-68
2021/08/03 13:13:18;;;;;;;;;;;21.50;72.20;;;;;;5034817;28;1134;-70
2021/08/03 13:15:44;;;;;;;;;;;21.50;72.00;;;;;;5034318;28;1979;-68
2021/08/03 13:18:09;;;;;;;;;;;21.50;71.50;;;;;;5033664;28;1128;-68
2021/08/03 13:20:35;;;;;;;;;;;21.50;71.50;;;;;;5033014;28;1081;-66
2021/08/03 13:23:00;;;;;;;;;;;21.50;71.60;;;;;;5033849;28;1118;-70
2021/08/03 13:25:26;;;;;;;;;;;21.50;71.60;;;;;;5033873;28;1280;-68
2021/08/03 13:27:51;;;;;;;;;;;21.50;71.10;;;;;;5034115;28;1115;-67
2021/08/03 13:30:16;;;;;;;;;;;21.50;71.00;;;;;;5033763;28;1075;-69
2021/08/03 13:32:42;;;;;;;;;;;21.40;71.30;;;;;;5033181;28;1750;-65
2021/08/03 13:35:07;;;;;;;;;;;21.40;71.30;;;;;;5049504;28;1898;-67
2021/08/03 13:37:33;;;;;;;;;;;21.50;72.10;;;;;;5038026;28;1125;-68
2021/08/03 13:39:59;;;;;;;;;;;21.40;72.70;;;;;;5034573;28;1123;-68
2021/08/03 13:42:25;;;;;;;;;;;21.40;72.80;;;;;;5036067;28;992;-70
2021/08/03 13:44:50;;;;;;;;;;;21.40;73.00;;;;;;5042054;28;1304;-66
2021/08/03 13:47:16;;;;;;;;;;;21.40;72.70;;;;;;5054104;28;1111;-66
2021/08/03 13:49:42;;;;;;;;;;;21.40;72.30;;;;;;5052910;28;1135;-69
2021/08/03 13:52:07;;;;;;;;;;;21.40;71.90;;;;;;5050198;28;1142;-68
2021/08/03 13:54:33;;;;;;;;;;;21.40;71.90;;;;;;5032584;28;1906;-69
2021/08/03 13:56:59;;;;;;;;;;;21.40;72.30;;;;;;5033935;28;1064;-68
2021/08/03 13:59:25;;;;;;;;;;;21.40;71.80;;;;;;5034045;28;1064;-67
2021/08/03 14:01:50;;;;;;;;;;;21.40;72.00;;;;;;5033803;28;1175;-68
2021/08/03 14:04:16;;;;;;;;;;;21.40;71.10;;;;;;5032949;28;1288;-67
2021/08/03 14:06:41;;;;;;;;;;;21.40;71.40;;;;;;5037429;28;1234;-68
2021/08/03 14:09:07;;;;;;;;;;;21.40;71.20;;;;;;5034350;28;1088;-67
2021/08/03 14:11:32;;;;;;;;;;;21.40;71.30;;;;;;5033743;28;1056;-68
2021/08/03 14:13:58;;;;;;;;;;;21.50;71.40;;;;;;5031600;28;1906;-68
2021/08/03 14:16:23;;;;;;;;;;;21.40;71.00;;;;;;5033552;28;1131;-69
2021/08/03 14:18:48;;;;;;;;;;;21.40;71.70;;;;;;5034465;28;1048;-69
2021/08/03 14:21:14;;;;;;;;;;;21.50;72.60;;;;;;5033961;28;1123;-70
2021/08/03 14:23:39;;;;;;;;;;;21.50;72.70;;;;;;5032700;28;1143;-70
2021/08/03 14:26:05;;;;;;;;;;;21.50;72.80;;;;;;5033736;28;1158;-71
2021/08/03 14:28:30;;;;;;;;;;;21.50;73.00;;;;;;5033710;28;1092;-69
2021/08/03 14:30:55;;;;;;;;;;;21.40;73.10;;;;;;5033928;28;1143;-69
2021/08/03 14:33:21;;;;;;;;;;;21.50;73.30;;;;;;5030826;28;1592;-69